Terminal Aerodrome Forecast
Issued by NWS

Home | Current Version | Previous Version | Text Only | Print | Product List | Glossary On
Versions: 1 2 3 4 5 6 7 8 9 10 11 12 13 14 15 16 17 18 19 20 21 22 23 24 25 26 27 28 29 30 31
000
FTUS45 KGJT 191218 AAA
TAFRIL
TAF AMD
KRIL 191218Z 1912/2012 17017G25KT P6SM VCSH BKN050 OVC070
     FM191600 25022G39KT P6SM VCSH SCT040 OVC050
      TEMPO 1918/1922 2SM -SHRASN BR OVC020
     FM192300 26019G34KT P6SM -SHRASN OVC050
     FM200300 28013G21KT 2SM -SHSN BR BKN020 OVC040
     FM201000 29006KT P6SM BKN035=

USA.gov is the U.S. government's official web portal to all federal, state and local government web resources and services.